createdAt,value
2018-05-02T01:01:45.200Z,64.10
2018-05-02T01:04:12.715Z,64.50
2018-05-02T01:06:40.570Z,64.50
2018-05-02T01:09:08.136Z,65.30
2018-05-02T01:11:36.626Z,64.20
2018-05-02T01:14:04.392Z,65.20
2018-05-02T01:16:32.229Z,66.60
2018-05-02T01:19:00.685Z,65.50
2018-05-02T01:21:28.376Z,65.30
2018-05-02T01:23:55.862Z,66.00
2018-05-02T01:26:24.165Z,66.20
2018-05-02T01:28:51.862Z,65.80
2018-05-02T01:31:20.392Z,66.10
2018-05-02T01:33:48.650Z,65.10
2018-05-02T01:36:16.288Z,65.00
2018-05-02T01:38:44.266Z,64.20
2018-05-02T01:41:11.913Z,64.20
2018-05-02T01:43:40.555Z,65.50
2018-05-02T01:46:08.816Z,65.50
2018-05-02T01:48:36.291Z,65.50
2018-05-02T01:51:03.807Z,65.50
2018-05-02T01:53:31.503Z,65.80
2018-05-02T01:56:00.289Z,64.80
2018-05-02T01:58:28.264Z,64.80
2018-05-02T02:00:56.710Z,65.60
2018-05-02T02:03:24.375Z,65.60
2018-05-02T02:05:53.378Z,67.60
2018-05-02T02:08:22.135Z,67.60
2018-05-02T02:10:49.640Z,66.80
2018-05-02T02:13:17.124Z,67.60
2018-05-02T02:15:44.698Z,67.60
2018-05-02T02:18:12.182Z,67.60
2018-05-02T02:20:39.667Z,66.70
2018-05-02T02:23:07.916Z,67.80
2018-05-02T02:25:35.916Z,67.80
2018-05-02T02:28:03.398Z,68.00
2018-05-02T02:30:30.890Z,68.20
2018-05-02T02:32:58.941Z,69.20
2018-05-02T02:35:26.413Z,67.70
2018-05-02T02:37:53.904Z,68.30
2018-05-02T02:40:22.505Z,68.50
2018-05-02T02:42:49.987Z,68.40
2018-05-02T02:45:17.825Z,68.30
2018-05-02T02:47:45.308Z,69.20
2018-05-02T02:50:12.893Z,66.90
2018-05-02T02:52:40.377Z,66.70
2018-05-02T02:55:08.081Z,67.80
2018-05-02T02:57:36.121Z,67.40
2018-05-02T03:00:03.884Z,67.20
2018-05-02T03:02:32.282Z,67.30
2018-05-02T03:04:59.961Z,67.10
2018-05-02T03:07:27.599Z,69.80
2018-05-02T03:09:56.013Z,69.70
2018-05-02T03:12:23.494Z,69.70
2018-05-02T03:14:50.984Z,69.10
2018-05-02T03:17:18.679Z,69.70
2018-05-02T03:19:46.253Z,70.30
2018-05-02T03:22:13.796Z,69.70
2018-05-02T03:24:41.624Z,69.80
2018-05-02T03:27:09.195Z,69.60
2018-05-02T03:29:36.614Z,70.40
2018-05-02T03:32:04.316Z,70.90
2018-05-02T03:34:32.569Z,70.50
2018-05-02T03:37:00.590Z,70.50
2018-05-02T03:39:29.036Z,70.20
2018-05-02T03:41:57.259Z,70.90
2018-05-02T03:44:25.369Z,71.40
2018-05-02T03:46:52.861Z,72.20
2018-05-02T03:49:20.498Z,70.90
2018-05-02T03:51:47.999Z,71.30
2018-05-02T03:54:15.646Z,71.40
2018-05-02T03:56:43.134Z,70.40
2018-05-02T03:59:10.693Z,71.00
2018-05-02T04:01:50.069Z,71.40
2018-05-02T04:04:29.641Z,71.80
2018-05-02T04:07:14.874Z,71.50
2018-05-02T04:09:43.194Z,71.20
2018-05-02T04:12:12.301Z,71.80
2018-05-02T04:14:39.798Z,70.40
2018-05-02T04:17:08.060Z,71.20
2018-05-02T04:19:35.869Z,71.20
2018-05-02T04:22:03.859Z,71.70
2018-05-02T04:24:31.417Z,72.00
2018-05-02T04:26:58.928Z,70.70
2018-05-02T04:29:27.139Z,71.10
2018-05-02T04:31:54.981Z,71.40
2018-05-02T04:34:22.836Z,72.20
2018-05-02T04:36:50.327Z,72.20
2018-05-02T04:39:18.178Z,72.80
2018-05-02T04:41:45.675Z,72.10
2018-05-02T04:44:13.183Z,72.20
2018-05-02T04:46:41.545Z,71.20
2018-05-02T04:49:09.258Z,71.20
2018-05-02T04:51:36.755Z,71.30
2018-05-02T04:54:04.241Z,72.10
2018-05-02T04:56:32.209Z,71.50
2018-05-02T04:59:00.851Z,70.30
2018-05-02T05:01:28.324Z,70.20
2018-05-02T05:03:55.812Z,71.00
2018-05-02T05:06:23.404Z,71.00
2018-05-02T05:08:50.961Z,69.70
2018-05-02T05:11:18.539Z,68.60
2018-05-02T05:13:46.289Z,67.40
2018-05-02T05:16:13.896Z,66.50
2018-05-02T05:18:42.926Z,67.10
2018-05-02T05:21:11.397Z,67.20
2018-05-02T05:23:38.949Z,66.50
2018-05-02T05:26:06.817Z,66.10
2018-05-02T05:28:34.502Z,65.90
2018-05-02T05:31:01.983Z,66.50
2018-05-02T05:33:29.833Z,65.30
2018-05-02T05:35:57.320Z,66.90
2018-05-02T05:38:24.950Z,65.60
2018-05-02T05:40:52.439Z,64.90
2018-05-02T05:43:20.528Z,63.20
2018-05-02T05:45:48.732Z,60.00
2018-05-02T05:48:16.230Z,61.20
2018-05-02T05:50:43.720Z,59.60
2018-05-02T05:53:11.211Z,59.70
2018-05-02T05:55:38.718Z,59.10
2018-05-02T05:58:06.212Z,59.00
2018-05-02T06:00:34.487Z,59.30
2018-05-02T06:03:02.269Z,59.30
2018-05-02T06:05:29.939Z,58.50
2018-05-02T06:07:57.427Z,58.50
2018-05-02T06:10:24.952Z,55.20
2018-05-02T06:12:52.442Z,55.40
2018-05-02T06:15:20.047Z,53.90
2018-05-02T06:17:47.543Z,53.50
2018-05-02T06:20:15.354Z,54.00
2018-05-02T06:22:42.863Z,53.30
2018-05-02T06:25:10.913Z,54.50
2018-05-02T06:27:39.547Z,54.80
2018-05-02T06:30:07.038Z,54.20
2018-05-02T06:32:35.320Z,55.40
2018-05-02T06:35:02.817Z,54.20
2018-05-02T06:37:30.643Z,53.80
2018-05-02T06:39:58.129Z,54.40
2018-05-02T06:42:25.773Z,53.00
2018-05-02T06:44:54.052Z,52.80
2018-05-02T06:47:21.635Z,52.60
2018-05-02T06:49:49.178Z,52.30
2018-05-02T06:52:16.687Z,51.50
2018-05-02T06:54:44.341Z,54.10
2018-05-02T06:57:12.555Z,51.90
2018-05-02T06:59:40.081Z,49.00
2018-05-02T07:02:07.593Z,46.70
2018-05-02T07:04:35.352Z,45.00
2018-05-02T07:07:02.845Z,43.70
2018-05-02T07:09:30.348Z,43.00
2018-05-02T07:11:59.540Z,39.30
2018-05-02T07:14:27.826Z,37.30
2018-05-02T07:16:55.833Z,37.30
2018-05-02T07:19:24.700Z,36.90
2018-05-02T07:21:53.473Z,37.60
2018-05-02T07:24:20.981Z,38.90
2018-05-02T07:26:48.480Z,35.30
2018-05-02T07:29:16.204Z,35.20
2018-05-02T07:31:44.733Z,34.20
2018-05-02T07:34:12.213Z,34.20
2018-05-02T07:36:40.282Z,36.40
2018-05-02T07:39:07.810Z,37.30
2018-05-02T07:41:35.338Z,39.60
2018-05-02T07:44:03.042Z,39.60
2018-05-02T07:46:30.929Z,37.40
2018-05-02T07:48:58.447Z,40.40
2018-05-02T07:51:26.727Z,40.70
2018-05-02T07:53:54.278Z,40.60
2018-05-02T07:56:21.881Z,40.60
2018-05-02T07:58:49.323Z,42.60
2018-05-02T08:01:16.822Z,45.20
2018-05-02T08:03:44.884Z,46.60
2018-05-02T08:06:12.507Z,49.20
2018-05-02T08:08:40.484Z,48.30
2018-05-02T08:11:08.080Z,50.40
2018-05-02T08:13:36.034Z,52.30
2018-05-02T08:16:03.560Z,54.40
2018-05-02T08:18:32.140Z,52.90
2018-05-02T08:21:00.518Z,53.20
2018-05-02T08:23:29.945Z,53.30
2018-05-02T08:25:57.627Z,53.40
2018-05-02T08:28:25.417Z,53.00
2018-05-02T08:30:53.095Z,52.60
2018-05-02T08:33:20.827Z,53.50
2018-05-02T08:35:48.323Z,57.00
2018-05-02T08:38:16.076Z,53.60
2018-05-02T08:40:44.352Z,48.80
2018-05-02T08:43:12.062Z,48.80
2018-05-02T08:45:39.558Z,47.60
2018-05-02T08:48:07.052Z,48.50
2018-05-02T08:50:34.552Z,46.00
2018-05-02T08:53:02.084Z,45.10
2018-05-02T08:55:30.096Z,45.10
2018-05-02T08:57:57.688Z,45.60
2018-05-02T09:00:25.183Z,45.60
2018-05-02T09:02:52.676Z,45.90
2018-05-02T09:05:20.200Z,44.60
2018-05-02T09:07:47.724Z,42.90
2018-05-02T09:10:16.317Z,45.80
2018-05-02T09:12:44.581Z,44.40
2018-05-02T09:15:13.072Z,45.70
2018-05-02T09:17:40.929Z,45.70
2018-05-02T09:20:09.037Z,47.10
2018-05-02T09:22:36.536Z,46.40
2018-05-02T09:25:05.372Z,46.40
2018-05-02T09:27:32.987Z,46.10
2018-05-02T09:30:00.484Z,47.00
2018-05-02T09:32:28.138Z,46.70
2018-05-02T09:34:55.665Z,45.70
2018-05-02T09:37:24.076Z,44.60
2018-05-02T09:39:51.576Z,43.90
2018-05-02T09:42:19.352Z,43.30
2018-05-02T09:44:47.158Z,42.10
2018-05-02T09:47:14.843Z,41.70
2018-05-02T09:49:43.407Z,41.90
2018-05-02T09:52:11.418Z,42.30
2018-05-02T09:54:38.932Z,37.70
2018-05-02T09:57:06.520Z,38.00
2018-05-02T09:59:34.204Z,32.70
2018-05-02T10:02:01.697Z,32.40
2018-05-02T10:04:29.212Z,33.20
2018-05-02T10:06:56.693Z,33.70
2018-05-02T10:09:24.429Z,34.10
2018-05-02T10:11:51.949Z,35.00
2018-05-02T10:14:20.531Z,35.60
2018-05-02T10:16:48.041Z,35.50
2018-05-02T10:19:15.573Z,35.40
2018-05-02T10:21:43.618Z,36.80
2018-05-02T10:24:11.961Z,36.70
2018-05-02T10:26:39.684Z,36.60
2018-05-02T10:29:07.180Z,35.50
2018-05-02T10:31:34.665Z,38.70
2018-05-02T10:34:03.800Z,39.10
2018-05-02T10:36:32.789Z,39.10
2018-05-02T10:39:00.348Z,38.80
2018-05-02T10:41:27.844Z,40.50
2018-05-02T10:43:55.324Z,42.70
2018-05-02T10:46:24.244Z,41.80
2018-05-02T10:48:52.026Z,41.80
2018-05-02T10:51:19.828Z,40.70
2018-05-02T10:53:47.478Z,42.00
2018-05-02T10:56:15.013Z,43.10
2018-05-02T10:58:42.661Z,42.20
2018-05-02T11:01:10.182Z,40.90
2018-05-02T11:03:37.984Z,40.30
2018-05-02T11:06:05.830Z,40.90
2018-05-02T11:08:34.440Z,40.10
2018-05-02T11:11:01.973Z,40.00
2018-05-02T11:13:30.314Z,43.70
2018-05-02T11:15:58.116Z,43.70
2018-05-02T11:18:25.617Z,42.60
2018-05-02T11:20:54.820Z,42.90
2018-05-02T11:23:22.297Z,41.80
2018-05-02T11:25:50.018Z,44.60
2018-05-02T11:28:17.562Z,41.00
2018-05-02T11:30:45.345Z,41.10
2018-05-02T11:33:12.876Z,41.70
2018-05-02T11:35:41.696Z,43.10
2018-05-02T11:38:09.307Z,43.10
2018-05-02T11:40:37.645Z,42.70
2018-05-02T11:43:05.267Z,42.70
2018-05-02T11:45:33.593Z,42.40
2018-05-02T11:48:02.213Z,42.50
2018-05-02T11:50:29.909Z,42.50
2018-05-02T11:52:58.577Z,42.10
2018-05-02T11:55:26.150Z,42.30
2018-05-02T11:57:53.758Z,42.80
2018-05-02T12:00:21.307Z,41.30
2018-05-02T12:02:48.862Z,40.30
2018-05-02T12:05:16.405Z,41.00
2018-05-02T12:07:43.896Z,41.30
2018-05-02T12:10:11.385Z,40.60
2018-05-02T12:12:38.962Z,41.30
2018-05-02T12:15:06.705Z,41.00
2018-05-02T12:17:34.585Z,41.10
2018-05-02T12:20:02.258Z,41.30
2018-05-02T12:22:30.123Z,41.50
2018-05-02T12:24:58.806Z,39.90
2018-05-02T12:27:26.399Z,41.00
2018-05-02T12:29:53.930Z,40.40
2018-05-02T12:32:21.421Z,40.80
2018-05-02T12:34:49.526Z,39.70
2018-05-02T12:37:17.223Z,40.20
2018-05-02T12:39:45.841Z,39.90
2018-05-02T12:42:13.984Z,41.20
2018-05-02T12:44:41.475Z,41.80
2018-05-02T12:47:09.006Z,41.00
2018-05-02T12:49:37.793Z,41.30
2018-05-02T12:52:05.356Z,41.70
2018-05-02T12:54:33.044Z,42.50
2018-05-02T12:57:00.578Z,42.70
2018-05-02T12:59:28.215Z,43.00
2018-05-02T13:02:05.548Z,42.00
2018-05-02T13:07:52.286Z,43.80
2018-05-02T13:10:20.466Z,43.40
2018-05-02T13:13:04.503Z,44.00
2018-05-02T13:15:43.360Z,43.90
2018-05-02T13:18:40.856Z,44.30
2018-05-02T13:27:37.337Z,44.00
2018-05-02T13:30:24.765Z,43.70
2018-05-02T13:32:52.862Z,45.80
2018-05-02T13:38:34.706Z,43.00
2018-05-02T13:41:02.286Z,42.90
2018-05-02T13:43:29.871Z,44.10
2018-05-02T13:45:58.890Z,45.10
2018-05-02T13:48:26.814Z,42.30
2018-05-02T13:50:54.391Z,42.00
2018-05-02T13:53:24.240Z,44.60
2018-05-02T13:55:54.479Z,43.90
2018-05-02T13:58:22.202Z,44.90
2018-05-02T14:00:50.669Z,44.40
2018-05-02T14:03:18.167Z,44.40
2018-05-02T14:05:45.684Z,43.70
2018-05-02T14:08:13.184Z,45.00
2018-05-02T14:10:41.653Z,45.20
2018-05-02T14:13:09.321Z,46.60
2018-05-02T14:15:36.849Z,48.20
2018-05-02T14:18:05.673Z,47.50
2018-05-02T14:20:33.289Z,47.50
2018-05-02T14:23:00.809Z,46.10
2018-05-02T14:25:28.676Z,47.90
2018-05-02T14:27:56.325Z,46.40
2018-05-02T14:30:24.952Z,47.10
2018-05-02T14:32:53.290Z,48.80
2018-05-02T14:35:20.731Z,48.80
2018-05-02T14:37:48.711Z,47.10
2018-05-02T14:40:16.233Z,46.20
2018-05-02T14:42:44.493Z,47.40
2018-05-02T14:45:12.493Z,47.40
2018-05-02T14:47:40.356Z,47.10
2018-05-02T14:50:07.875Z,47.20
2018-05-02T14:52:35.496Z,48.10
2018-05-02T14:55:02.999Z,47.90
2018-05-02T14:57:30.543Z,47.90
2018-05-02T14:59:58.039Z,47.00
2018-05-02T15:02:25.801Z,46.10
2018-05-02T15:04:55.439Z,46.00
2018-05-02T15:07:24.661Z,46.00
2018-05-02T15:09:52.250Z,46.50
2018-05-02T15:12:20.009Z,47.30
2018-05-02T15:14:47.594Z,48.00
2018-05-02T15:17:15.515Z,48.40
2018-05-02T15:19:43.046Z,47.40
2018-05-02T15:22:11.115Z,48.30
2018-05-02T15:24:38.669Z,47.70
2018-05-02T15:27:06.333Z,49.20
2018-05-02T15:29:33.860Z,49.70
2018-05-02T15:32:01.440Z,48.70
2018-05-02T15:34:28.877Z,51.10
2018-05-02T15:36:56.805Z,49.50
2018-05-02T15:39:24.621Z,51.20
2018-05-02T15:41:52.219Z,51.10
2018-05-02T15:44:20.289Z,51.30
2018-05-02T15:46:47.831Z,51.30
2018-05-02T15:49:15.560Z,52.90
2018-05-02T15:51:45.097Z,53.40
2018-05-02T15:54:13.087Z,53.40
2018-05-02T15:56:40.945Z,53.20
2018-05-02T15:59:09.085Z,53.20
2018-05-02T16:01:37.622Z,53.60
2018-05-02T16:04:05.126Z,53.10
2018-05-02T16:06:33.743Z,53.10
2018-05-02T16:09:01.799Z,53.00
2018-05-02T16:11:29.345Z,53.60
2018-05-02T16:13:58.720Z,53.40
2018-05-02T16:16:26.354Z,53.40
2018-05-02T16:18:55.287Z,53.60
2018-05-02T16:21:22.796Z,52.70
2018-05-02T16:23:50.313Z,54.60
2018-05-02T16:26:18.938Z,54.10
2018-05-02T16:28:46.691Z,54.00
2018-05-02T16:44:18.588Z,56.60
2018-05-02T16:46:50.158Z,55.40
2018-05-02T16:49:26.858Z,54.80
2018-05-02T16:51:55.510Z,55.90
2018-05-02T16:54:24.731Z,56.00
2018-05-02T16:56:56.487Z,55.90
2018-05-02T16:59:29.221Z,57.10
2018-05-02T17:01:58.937Z,57.00
2018-05-02T17:04:26.581Z,56.70
2018-05-02T17:07:04.711Z,57.20
2018-05-02T17:10:03.378Z,57.30
2018-05-02T17:12:31.474Z,57.70
2018-05-02T17:15:09.805Z,58.40
2018-05-02T17:17:38.024Z,58.30
2018-05-02T17:20:06.797Z,57.80
2018-05-02T17:25:42.437Z,58.20
2018-05-02T17:28:10.072Z,58.30
2018-05-02T17:30:38.882Z,59.00
2018-05-02T17:33:06.508Z,58.90
2018-05-02T17:35:34.304Z,59.00
2018-05-02T17:38:01.813Z,59.50
2018-05-02T17:40:29.391Z,58.60
2018-05-02T17:42:57.227Z,58.60
2018-05-02T17:45:24.720Z,59.50
2018-05-02T17:47:52.977Z,59.70
2018-05-02T17:50:21.110Z,59.50
2018-05-02T17:52:48.615Z,59.90
2018-05-02T17:55:16.340Z,60.70
2018-05-02T17:57:43.840Z,59.90
2018-05-02T18:00:11.765Z,60.50
2018-05-02T18:02:39.798Z,61.20
2018-05-02T18:05:07.641Z,61.10
2018-05-02T18:07:35.150Z,62.00
2018-05-02T18:10:02.782Z,61.80
2018-05-02T18:12:30.673Z,61.80
2018-05-02T18:14:58.195Z,62.00
2018-05-02T18:17:26.486Z,62.50
2018-05-02T18:19:54.310Z,63.30
2018-05-02T18:22:24.004Z,62.90
2018-05-02T18:24:52.043Z,63.10
2018-05-02T18:27:21.284Z,62.80
2018-05-02T18:29:48.873Z,63.60
2018-05-02T18:32:16.630Z,63.50
2018-05-02T18:34:45.884Z,63.90
2018-05-02T18:37:15.124Z,64.60
2018-05-02T18:39:42.789Z,64.00
2018-05-02T18:42:10.710Z,64.50
2018-05-02T18:44:38.337Z,64.20
2018-05-02T18:47:06.483Z,64.50
2018-05-02T18:49:34.211Z,65.00
2018-05-02T18:52:02.487Z,64.40
2018-05-02T18:54:30.787Z,64.50
2018-05-02T18:56:58.290Z,65.10
2018-05-02T18:59:26.727Z,65.20
2018-05-02T19:01:54.458Z,65.10
2018-05-02T19:04:23.056Z,66.40
2018-05-02T19:06:50.556Z,66.00
2018-05-02T19:09:18.778Z,66.10
2018-05-02T19:11:49.249Z,65.80
2018-05-02T19:14:17.343Z,66.40
2018-05-02T19:16:46.819Z,65.60
2018-05-02T19:19:21.775Z,65.50
2018-05-02T19:21:49.967Z,65.80
2018-05-02T19:24:19.029Z,66.40
2018-05-02T19:26:49.184Z,66.60
2018-05-02T19:29:17.108Z,66.50
2018-05-02T19:31:50.489Z,66.70
2018-05-02T19:34:18.709Z,67.30
2018-05-02T19:36:46.493Z,67.80
2018-05-02T19:39:14.037Z,68.00
2018-05-02T19:41:50.243Z,68.70
2018-05-02T19:44:18.464Z,68.70
2018-05-02T19:46:46.849Z,69.60
2018-05-02T19:49:14.770Z,69.70
2018-05-02T19:51:48.216Z,70.00
2018-05-02T19:54:16.361Z,70.40
2018-05-02T19:56:43.939Z,70.70
2018-05-02T19:59:12.171Z,71.00
2018-05-02T20:01:46.646Z,72.60
2018-05-02T20:04:14.922Z,72.50
2018-05-02T20:06:42.448Z,72.80
2018-05-02T20:09:16.352Z,73.30
2018-05-02T20:11:50.098Z,73.30
2018-05-02T20:14:17.821Z,74.10
2018-05-02T20:16:45.409Z,75.10
2018-05-02T20:19:12.977Z,74.60
2018-05-02T20:21:40.731Z,74.40
2018-05-02T20:24:08.244Z,75.10
2018-05-02T20:26:35.997Z,75.80
2018-05-02T20:29:03.499Z,75.30
2018-05-02T20:31:31.028Z,75.30
2018-05-02T20:33:58.823Z,75.20
2018-05-02T20:36:26.654Z,75.10
2018-05-02T20:38:54.156Z,75.60
2018-05-02T20:41:22.237Z,75.50
2018-05-02T20:43:49.901Z,75.60
2018-05-02T20:46:17.718Z,75.90
2018-05-02T20:48:47.214Z,75.50
2018-05-02T20:51:15.640Z,76.20
2018-05-02T20:53:44.039Z,75.90
2018-05-02T20:56:12.041Z,75.20
2018-05-02T20:58:39.741Z,75.10
2018-05-02T21:01:08.928Z,75.50
2018-05-02T21:03:36.898Z,75.30
2018-05-02T21:06:05.298Z,76.10
2018-05-02T21:08:33.832Z,76.10
